Richmond North's Hourly Summary for Thursday, May 10, 2018
Hour Temp
(f)
RH
(%)
Solar Rad.
(MJ/m2)
Rainfall
(in)
Wind
(mph)
5/10/2018 12:00 AM 64 95 0 0 0.31
5/10/2018 1:00 AM 64 93 0 0 0.09
5/10/2018 2:00 AM 61 96 0 0 0
5/10/2018 3:00 AM 59 98 0 0 0
5/10/2018 4:00 AM 58 98 0 0 0
5/10/2018 5:00 AM 58 99 0 0 0
5/10/2018 6:00 AM 58 99 0.04 0 0
5/10/2018 7:00 AM 64 97 0.53 0 0.02
5/10/2018 8:00 AM 72 80 0.53 0 2
5/10/2018 9:00 AM 76 67 1.32 0 3.98
5/10/2018 10:00 AM 80 55 2.77 0 5.06
5/10/2018 11:00 AM 82 47 3.27 0 5.33
5/10/2018 12:00 PM 84 40 3.27 0 5.33
5/10/2018 1:00 PM 85 40 3.08 0 5.32
5/10/2018 2:00 PM 86 39 3.3 0 5.18
5/10/2018 3:00 PM 86 41 2.82 0 5.89
5/10/2018 4:00 PM 85 44 2.48 0 6.4
5/10/2018 5:00 PM 84 45 1.86 0 6.25
5/10/2018 6:00 PM 82 46 1 0 5.42
5/10/2018 7:00 PM 79 52 0.2 0 3.7
5/10/2018 8:00 PM 75 59 0 0 1.97
5/10/2018 9:00 PM 73 66 0 0 2.38
5/10/2018 10:00 PM 72 77 0 0 2.45
5/10/2018 11:00 PM 70 87 0 0 0.34
Data Summary 73 69 26.47 0.00 2.81